sensor_id;sensor_type;location;lat;lon;timestamp;P1;durP1;ratioP1;P2;durP2;ratioP2
13672;SDS011;6909;52.202;9.876;2022-10-31T00:01:16;1.97;;;1.40;;
13672;SDS011;6909;52.202;9.876;2022-10-31T00:03:44;2.90;;;1.60;;
13672;SDS011;6909;52.202;9.876;2022-10-31T00:06:11;2.17;;;1.97;;
13672;SDS011;6909;52.202;9.876;2022-10-31T00:08:37;1.80;;;1.47;;
13672;SDS011;6909;52.202;9.876;2022-10-31T00:11:09;5.10;;;1.50;;
13672;SDS011;6909;52.202;9.876;2022-10-31T00:13:36;2.53;;;1.60;;
13672;SDS011;6909;52.202;9.876;2022-10-31T00:16:03;1.97;;;1.60;;
13672;SDS011;6909;52.202;9.876;2022-10-31T00:18:30;2.40;;;1.70;;
13672;SDS011;6909;52.202;9.876;2022-10-31T00:21:00;2.40;;;1.33;;
13672;SDS011;6909;52.202;9.876;2022-10-31T00:23:27;3.63;;;1.80;;
13672;SDS011;6909;52.202;9.876;2022-10-31T00:25:54;2.13;;;1.80;;
13672;SDS011;6909;52.202;9.876;2022-10-31T00:28:27;1.73;;;1.63;;
13672;SDS011;6909;52.202;9.876;2022-10-31T00:30:57;7.80;;;1.87;;
13672;SDS011;6909;52.202;9.876;2022-10-31T00:33:24;3.80;;;1.63;;
13672;SDS011;6909;52.202;9.876;2022-10-31T00:35:51;2.23;;;1.67;;
13672;SDS011;6909;52.202;9.876;2022-10-31T00:38:18;5.10;;;2.40;;
13672;SDS011;6909;52.202;9.876;2022-10-31T00:40:45;2.83;;;2.57;;
13672;SDS011;6909;52.202;9.876;2022-10-31T00:43:11;2.23;;;2.03;;
13672;SDS011;6909;52.202;9.876;2022-10-31T00:45:39;2.57;;;1.80;;
13672;SDS011;6909;52.202;9.876;2022-10-31T00:48:07;4.17;;;1.83;;
13672;SDS011;6909;52.202;9.876;2022-10-31T00:50:34;7.50;;;2.40;;
13672;SDS011;6909;52.202;9.876;2022-10-31T00:53:01;2.80;;;2.43;;
13672;SDS011;6909;52.202;9.876;2022-10-31T00:55:27;3.67;;;1.90;;
13672;SDS011;6909;52.202;9.876;2022-10-31T00:57:54;4.33;;;1.63;;
13672;SDS011;6909;52.202;9.876;2022-10-31T01:00:21;3.77;;;1.80;;
13672;SDS011;6909;52.202;9.876;2022-10-31T01:02:49;2.90;;;2.03;;
13672;SDS011;6909;52.202;9.876;2022-10-31T01:05:16;3.53;;;2.00;;
13672;SDS011;6909;52.202;9.876;2022-10-31T01:07:43;4.07;;;1.87;;
13672;SDS011;6909;52.202;9.876;2022-10-31T01:10:10;4.00;;;2.43;;
13672;SDS011;6909;52.202;9.876;2022-10-31T01:12:38;2.83;;;2.13;;
13672;SDS011;6909;52.202;9.876;2022-10-31T01:15:05;2.37;;;1.90;;
13672;SDS011;6909;52.202;9.876;2022-10-31T01:17:33;3.77;;;2.37;;
13672;SDS011;6909;52.202;9.876;2022-10-31T01:20:01;3.10;;;2.50;;
13672;SDS011;6909;52.202;9.876;2022-10-31T01:22:29;2.27;;;1.70;;
13672;SDS011;6909;52.202;9.876;2022-10-31T01:24:56;2.30;;;1.80;;
13672;SDS011;6909;52.202;9.876;2022-10-31T01:27:22;5.90;;;3.40;;
13672;SDS011;6909;52.202;9.876;2022-10-31T01:29:49;3.07;;;2.17;;
13672;SDS011;6909;52.202;9.876;2022-10-31T01:32:16;2.50;;;2.30;;
13672;SDS011;6909;52.202;9.876;2022-10-31T01:34:42;2.63;;;2.37;;
13672;SDS011;6909;52.202;9.876;2022-10-31T01:37:10;7.43;;;2.50;;
13672;SDS011;6909;52.202;9.876;2022-10-31T01:39:38;6.00;;;2.50;;
13672;SDS011;6909;52.202;9.876;2022-10-31T01:42:05;3.90;;;2.67;;
13672;SDS011;6909;52.202;9.876;2022-10-31T01:44:51;4.03;;;2.57;;
13672;SDS011;6909;52.202;9.876;2022-10-31T01:47:21;4.63;;;3.23;;
13672;SDS011;6909;52.202;9.876;2022-10-31T01:50:10;2.57;;;1.97;;
13672;SDS011;6909;52.202;9.876;2022-10-31T01:52:45;1.90;;;1.80;;
13672;SDS011;6909;52.202;9.876;2022-10-31T01:55:18;4.47;;;2.43;;
13672;SDS011;6909;52.202;9.876;2022-10-31T01:57:50;3.63;;;2.43;;
13672;SDS011;6909;52.202;9.876;2022-10-31T02:00:20;2.77;;;2.37;;
13672;SDS011;6909;52.202;9.876;2022-10-31T02:02:47;2.93;;;2.50;;
13672;SDS011;6909;52.202;9.876;2022-10-31T02:05:16;2.60;;;2.40;;
13672;SDS011;6909;52.202;9.876;2022-10-31T02:07:48;7.37;;;3.03;;
13672;SDS011;6909;52.202;9.876;2022-10-31T02:10:20;3.73;;;2.43;;
13672;SDS011;6909;52.202;9.876;2022-10-31T02:12:49;3.97;;;3.00;;
13672;SDS011;6909;52.202;9.876;2022-10-31T02:15:17;4.47;;;2.90;;
13672;SDS011;6909;52.202;9.876;2022-10-31T02:17:44;5.40;;;2.67;;
13672;SDS011;6909;52.202;9.876;2022-10-31T02:20:13;4.50;;;3.03;;
13672;SDS011;6909;52.202;9.876;2022-10-31T02:22:48;5.20;;;3.27;;
13672;SDS011;6909;52.202;9.876;2022-10-31T02:25:41;2.77;;;2.57;;
13672;SDS011;6909;52.202;9.876;2022-10-31T02:28:28;4.10;;;3.27;;
13672;SDS011;6909;52.202;9.876;2022-10-31T02:31:15;6.87;;;3.97;;
13672;SDS011;6909;52.202;9.876;2022-10-31T02:33:53;7.63;;;4.13;;
13672;SDS011;6909;52.202;9.876;2022-10-31T02:36:25;5.33;;;3.37;;
13672;SDS011;6909;52.202;9.876;2022-10-31T02:38:56;4.30;;;3.37;;
13672;SDS011;6909;52.202;9.876;2022-10-31T02:41:35;4.73;;;3.87;;
13672;SDS011;6909;52.202;9.876;2022-10-31T02:44:11;8.67;;;3.50;;
13672;SDS011;6909;52.202;9.876;2022-10-31T02:46:47;6.53;;;3.57;;
13672;SDS011;6909;52.202;9.876;2022-10-31T02:49:18;4.43;;;3.53;;
13672;SDS011;6909;52.202;9.876;2022-10-31T02:51:49;5.27;;;3.07;;
13672;SDS011;6909;52.202;9.876;2022-10-31T02:54:19;5.27;;;3.93;;
13672;SDS011;6909;52.202;9.876;2022-10-31T02:56:48;5.33;;;3.37;;
13672;SDS011;6909;52.202;9.876;2022-10-31T02:59:18;5.60;;;3.20;;
13672;SDS011;6909;52.202;9.876;2022-10-31T03:01:50;6.30;;;3.77;;
13672;SDS011;6909;52.202;9.876;2022-10-31T03:04:45;5.40;;;3.50;;
13672;SDS011;6909;52.202;9.876;2022-10-31T03:07:24;3.07;;;2.50;;
13672;SDS011;6909;52.202;9.876;2022-10-31T03:10:01;5.83;;;2.53;;
13672;SDS011;6909;52.202;9.876;2022-10-31T03:12:38;3.63;;;2.63;;
13672;SDS011;6909;52.202;9.876;2022-10-31T03:15:09;3.20;;;2.63;;
13672;SDS011;6909;52.202;9.876;2022-10-31T03:17:45;5.73;;;2.90;;
13672;SDS011;6909;52.202;9.876;2022-10-31T03:20:19;3.53;;;2.90;;
13672;SDS011;6909;52.202;9.876;2022-10-31T03:22:50;3.10;;;2.80;;
13672;SDS011;6909;52.202;9.876;2022-10-31T03:25:18;4.30;;;3.20;;
13672;SDS011;6909;52.202;9.876;2022-10-31T03:27:45;3.93;;;3.33;;
13672;SDS011;6909;52.202;9.876;2022-10-31T03:30:13;4.03;;;3.40;;
13672;SDS011;6909;52.202;9.876;2022-10-31T03:32:44;5.97;;;3.43;;
13672;SDS011;6909;52.202;9.876;2022-10-31T03:35:15;4.30;;;3.07;;
13672;SDS011;6909;52.202;9.876;2022-10-31T03:37:45;4.07;;;3.13;;
13672;SDS011;6909;52.202;9.876;2022-10-31T03:40:14;3.20;;;2.83;;
13672;SDS011;6909;52.202;9.876;2022-10-31T03:42:43;3.93;;;3.27;;
13672;SDS011;6909;52.202;9.876;2022-10-31T03:45:19;5.97;;;3.60;;
13672;SDS011;6909;52.202;9.876;2022-10-31T03:47:50;5.37;;;3.50;;
13672;SDS011;6909;52.202;9.876;2022-10-31T03:50:18;10.57;;;3.70;;
13672;SDS011;6909;52.202;9.876;2022-10-31T03:52:46;5.23;;;3.77;;
13672;SDS011;6909;52.202;9.876;2022-10-31T03:55:17;5.20;;;3.63;;
13672;SDS011;6909;52.202;9.876;2022-10-31T03:57:48;5.37;;;3.77;;
13672;SDS011;6909;52.202;9.876;2022-10-31T04:00:21;5.87;;;3.07;;
13672;SDS011;6909;52.202;9.876;2022-10-31T04:02:49;6.00;;;3.93;;
13672;SDS011;6909;52.202;9.876;2022-10-31T04:05:21;6.80;;;3.73;;
13672;SDS011;6909;52.202;9.876;2022-10-31T04:07:50;6.43;;;4.27;;
13672;SDS011;6909;52.202;9.876;2022-10-31T04:10:20;4.73;;;4.00;;
13672;SDS011;6909;52.202;9.876;2022-10-31T04:12:50;4.53;;;3.63;;
13672;SDS011;6909;52.202;9.876;2022-10-31T04:15:21;6.67;;;4.23;;
13672;SDS011;6909;52.202;9.876;2022-10-31T04:17:50;6.50;;;4.63;;
13672;SDS011;6909;52.202;9.876;2022-10-31T04:20:29;6.37;;;3.67;;
13672;SDS011;6909;52.202;9.876;2022-10-31T04:22:56;6.03;;;3.97;;
13672;SDS011;6909;52.202;9.876;2022-10-31T04:25:23;5.37;;;3.77;;
13672;SDS011;6909;52.202;9.876;2022-10-31T04:27:49;8.27;;;4.37;;
13672;SDS011;6909;52.202;9.876;2022-10-31T04:30:16;6.87;;;4.57;;
13672;SDS011;6909;52.202;9.876;2022-10-31T04:32:43;6.67;;;4.03;;
13672;SDS011;6909;52.202;9.876;2022-10-31T04:35:11;6.07;;;4.10;;
13672;SDS011;6909;52.202;9.876;2022-10-31T04:37:37;6.57;;;4.43;;
13672;SDS011;6909;52.202;9.876;2022-10-31T04:40:05;5.10;;;3.70;;
13672;SDS011;6909;52.202;9.876;2022-10-31T04:42:32;8.73;;;3.73;;
13672;SDS011;6909;52.202;9.876;2022-10-31T04:44:59;6.07;;;4.60;;
13672;SDS011;6909;52.202;9.876;2022-10-31T04:47:27;8.00;;;4.60;;
13672;SDS011;6909;52.202;9.876;2022-10-31T04:49:56;7.37;;;4.40;;
13672;SDS011;6909;52.202;9.876;2022-10-31T04:52:24;9.17;;;5.07;;
13672;SDS011;6909;52.202;9.876;2022-10-31T04:54:51;5.93;;;4.20;;
13672;SDS011;6909;52.202;9.876;2022-10-31T04:57:17;11.00;;;6.17;;
13672;SDS011;6909;52.202;9.876;2022-10-31T04:59:44;6.43;;;4.70;;
13672;SDS011;6909;52.202;9.876;2022-10-31T05:02:11;6.90;;;4.40;;
13672;SDS011;6909;52.202;9.876;2022-10-31T05:04:37;9.57;;;4.10;;
13672;SDS011;6909;52.202;9.876;2022-10-31T05:07:04;5.33;;;4.17;;
13672;SDS011;6909;52.202;9.876;2022-10-31T05:09:32;6.03;;;3.67;;
13672;SDS011;6909;52.202;9.876;2022-10-31T05:12:02;6.37;;;4.23;;
13672;SDS011;6909;52.202;9.876;2022-10-31T05:14:29;8.53;;;4.27;;
13672;SDS011;6909;52.202;9.876;2022-10-31T05:16:55;7.30;;;4.17;;
13672;SDS011;6909;52.202;9.876;2022-10-31T05:19:22;4.63;;;3.00;;
13672;SDS011;6909;52.202;9.876;2022-10-31T05:21:49;5.23;;;4.10;;
13672;SDS011;6909;52.202;9.876;2022-10-31T05:24:18;5.43;;;4.50;;
13672;SDS011;6909;52.202;9.876;2022-10-31T05:26:48;5.67;;;4.17;;
13672;SDS011;6909;52.202;9.876;2022-10-31T05:29:15;8.73;;;4.10;;
13672;SDS011;6909;52.202;9.876;2022-10-31T05:31:42;6.67;;;4.17;;
13672;SDS011;6909;52.202;9.876;2022-10-31T05:34:08;5.50;;;3.17;;
13672;SDS011;6909;52.202;9.876;2022-10-31T05:36:35;5.50;;;3.70;;
13672;SDS011;6909;52.202;9.876;2022-10-31T05:39:02;4.20;;;3.10;;
13672;SDS011;6909;52.202;9.876;2022-10-31T05:41:29;5.90;;;3.90;;
13672;SDS011;6909;52.202;9.876;2022-10-31T05:43:57;7.67;;;3.57;;
13672;SDS011;6909;52.202;9.876;2022-10-31T05:46:23;8.03;;;4.77;;
13672;SDS011;6909;52.202;9.876;2022-10-31T05:48:50;12.03;;;5.20;;
13672;SDS011;6909;52.202;9.876;2022-10-31T05:51:17;8.80;;;5.00;;
13672;SDS011;6909;52.202;9.876;2022-10-31T05:53:43;9.30;;;4.13;;
13672;SDS011;6909;52.202;9.876;2022-10-31T05:56:12;7.23;;;5.07;;
13672;SDS011;6909;52.202;9.876;2022-10-31T05:58:39;7.10;;;4.83;;
13672;SDS011;6909;52.202;9.876;2022-10-31T06:01:07;8.53;;;4.83;;
13672;SDS011;6909;52.202;9.876;2022-10-31T06:03:33;6.80;;;4.23;;
13672;SDS011;6909;52.202;9.876;2022-10-31T06:06:00;6.03;;;4.40;;
13672;SDS011;6909;52.202;9.876;2022-10-31T06:08:27;7.73;;;4.37;;
13672;SDS011;6909;52.202;9.876;2022-10-31T06:10:53;11.07;;;5.20;;
13672;SDS011;6909;52.202;9.876;2022-10-31T06:13:20;7.70;;;4.30;;
13672;SDS011;6909;52.202;9.876;2022-10-31T06:15:47;4.67;;;3.90;;
13672;SDS011;6909;52.202;9.876;2022-10-31T06:18:15;5.87;;;4.00;;
13672;SDS011;6909;52.202;9.876;2022-10-31T06:20:42;4.60;;;3.70;;
13672;SDS011;6909;52.202;9.876;2022-10-31T06:23:08;5.23;;;3.70;;
13672;SDS011;6909;52.202;9.876;2022-10-31T06:25:38;6.60;;;4.33;;
13672;SDS011;6909;52.202;9.876;2022-10-31T06:28:05;5.40;;;3.53;;
13672;SDS011;6909;52.202;9.876;2022-10-31T06:30:31;5.27;;;3.63;;
13672;SDS011;6909;52.202;9.876;2022-10-31T06:33:01;6.93;;;3.97;;
13672;SDS011;6909;52.202;9.876;2022-10-31T06:35:30;10.93;;;4.17;;
13672;SDS011;6909;52.202;9.876;2022-10-31T06:37:57;4.37;;;3.17;;
13672;SDS011;6909;52.202;9.876;2022-10-31T06:40:24;6.80;;;4.07;;
13672;SDS011;6909;52.202;9.876;2022-10-31T06:42:57;6.17;;;3.63;;
13672;SDS011;6909;52.202;9.876;2022-10-31T06:45:24;5.77;;;3.97;;
13672;SDS011;6909;52.202;9.876;2022-10-31T06:47:51;10.27;;;4.70;;
13672;SDS011;6909;52.202;9.876;2022-10-31T06:50:18;5.00;;;3.53;;
13672;SDS011;6909;52.202;9.876;2022-10-31T06:52:51;6.57;;;4.50;;
13672;SDS011;6909;52.202;9.876;2022-10-31T06:55:26;6.20;;;4.40;;
13672;SDS011;6909;52.202;9.876;2022-10-31T06:57:54;5.87;;;4.37;;
13672;SDS011;6909;52.202;9.876;2022-10-31T07:00:22;7.27;;;4.80;;
13672;SDS011;6909;52.202;9.876;2022-10-31T07:02:54;8.10;;;5.03;;
13672;SDS011;6909;52.202;9.876;2022-10-31T07:05:21;6.00;;;4.67;;
13672;SDS011;6909;52.202;9.876;2022-10-31T07:07:52;9.67;;;5.13;;
13672;SDS011;6909;52.202;9.876;2022-10-31T07:10:19;8.17;;;4.87;;
13672;SDS011;6909;52.202;9.876;2022-10-31T07:12:46;7.93;;;4.60;;
13672;SDS011;6909;52.202;9.876;2022-10-31T07:15:13;11.70;;;4.60;;
13672;SDS011;6909;52.202;9.876;2022-10-31T07:17:40;8.17;;;4.47;;
13672;SDS011;6909;52.202;9.876;2022-10-31T07:20:07;8.13;;;4.20;;
13672;SDS011;6909;52.202;9.876;2022-10-31T07:22:35;6.37;;;3.97;;
13672;SDS011;6909;52.202;9.876;2022-10-31T07:25:03;6.37;;;3.77;;
13672;SDS011;6909;52.202;9.876;2022-10-31T07:27:34;5.57;;;4.17;;
13672;SDS011;6909;52.202;9.876;2022-10-31T07:30:04;6.45;;;3.60;;
13672;SDS011;6909;52.202;9.876;2022-10-31T07:32:38;6.60;;;3.87;;
13672;SDS011;6909;52.202;9.876;2022-10-31T07:35:06;6.13;;;3.63;;
13672;SDS011;6909;52.202;9.876;2022-10-31T07:37:33;5.57;;;3.63;;
13672;SDS011;6909;52.202;9.876;2022-10-31T07:40:00;5.23;;;3.83;;
13672;SDS011;6909;52.202;9.876;2022-10-31T07:42:28;5.27;;;4.10;;
13672;SDS011;6909;52.202;9.876;2022-10-31T07:44:55;7.80;;;4.60;;
13672;SDS011;6909;52.202;9.876;2022-10-31T07:47:22;7.10;;;3.53;;
13672;SDS011;6909;52.202;9.876;2022-10-31T07:49:49;4.97;;;3.57;;
13672;SDS011;6909;52.202;9.876;2022-10-31T07:52:15;5.23;;;3.43;;
13672;SDS011;6909;52.202;9.876;2022-10-31T07:54:42;7.37;;;4.27;;
13672;SDS011;6909;52.202;9.876;2022-10-31T07:57:09;5.20;;;3.63;;
13672;SDS011;6909;52.202;9.876;2022-10-31T07:59:37;7.57;;;4.47;;
13672;SDS011;6909;52.202;9.876;2022-10-31T08:02:04;6.87;;;4.53;;
13672;SDS011;6909;52.202;9.876;2022-10-31T08:04:31;6.37;;;3.97;;
13672;SDS011;6909;52.202;9.876;2022-10-31T08:06:58;5.57;;;4.13;;
13672;SDS011;6909;52.202;9.876;2022-10-31T08:09:24;7.83;;;4.20;;
13672;SDS011;6909;52.202;9.876;2022-10-31T08:11:52;8.23;;;3.97;;
13672;SDS011;6909;52.202;9.876;2022-10-31T08:14:19;6.20;;;3.97;;
13672;SDS011;6909;52.202;9.876;2022-10-31T08:16:48;7.90;;;4.40;;
13672;SDS011;6909;52.202;9.876;2022-10-31T08:19:15;7.93;;;4.67;;
13672;SDS011;6909;52.202;9.876;2022-10-31T08:21:42;7.87;;;4.67;;
13672;SDS011;6909;52.202;9.876;2022-10-31T08:24:09;6.53;;;4.37;;
13672;SDS011;6909;52.202;9.876;2022-10-31T08:26:38;8.00;;;4.40;;
13672;SDS011;6909;52.202;9.876;2022-10-31T08:29:04;6.40;;;3.87;;
13672;SDS011;6909;52.202;9.876;2022-10-31T08:31:32;6.70;;;3.90;;
13672;SDS011;6909;52.202;9.876;2022-10-31T08:34:00;8.57;;;4.63;;
13672;SDS011;6909;52.202;9.876;2022-10-31T08:36:27;7.60;;;4.57;;
13672;SDS011;6909;52.202;9.876;2022-10-31T08:38:55;6.73;;;4.53;;
13672;SDS011;6909;52.202;9.876;2022-10-31T08:41:22;9.10;;;4.50;;
13672;SDS011;6909;52.202;9.876;2022-10-31T08:43:48;10.03;;;5.23;;
13672;SDS011;6909;52.202;9.876;2022-10-31T08:46:15;7.93;;;3.90;;
13672;SDS011;6909;52.202;9.876;2022-10-31T08:48:42;7.63;;;4.30;;
13672;SDS011;6909;52.202;9.876;2022-10-31T08:51:10;6.60;;;3.97;;
13672;SDS011;6909;52.202;9.876;2022-10-31T08:53:37;6.23;;;4.70;;
13672;SDS011;6909;52.202;9.876;2022-10-31T08:56:04;8.20;;;5.03;;
13672;SDS011;6909;52.202;9.876;2022-10-31T08:58:31;9.57;;;5.30;;
13672;SDS011;6909;52.202;9.876;2022-10-31T09:00:59;9.60;;;5.07;;
13672;SDS011;6909;52.202;9.876;2022-10-31T09:03:28;8.37;;;5.17;;
13672;SDS011;6909;52.202;9.876;2022-10-31T09:05:57;9.13;;;5.13;;
13672;SDS011;6909;52.202;9.876;2022-10-31T09:08:28;13.10;;;5.33;;
13672;SDS011;6909;52.202;9.876;2022-10-31T09:10:56;13.83;;;5.40;;
13672;SDS011;6909;52.202;9.876;2022-10-31T09:13:22;7.83;;;5.77;;
13672;SDS011;6909;52.202;9.876;2022-10-31T09:15:50;9.93;;;5.80;;
13672;SDS011;6909;52.202;9.876;2022-10-31T09:18:18;11.90;;;5.97;;
13672;SDS011;6909;52.202;9.876;2022-10-31T09:20:52;12.60;;;5.87;;
13672;SDS011;6909;52.202;9.876;2022-10-31T09:23:20;9.50;;;5.83;;
13672;SDS011;6909;52.202;9.876;2022-10-31T09:25:51;10.87;;;5.97;;
13672;SDS011;6909;52.202;9.876;2022-10-31T09:28:19;10.57;;;6.00;;
13672;SDS011;6909;52.202;9.876;2022-10-31T09:30:48;6.80;;;4.63;;
13672;SDS011;6909;52.202;9.876;2022-10-31T09:33:16;8.07;;;5.47;;
13672;SDS011;6909;52.202;9.876;2022-10-31T09:35:43;7.50;;;4.60;;
13672;SDS011;6909;52.202;9.876;2022-10-31T09:38:10;8.93;;;4.70;;
13672;SDS011;6909;52.202;9.876;2022-10-31T09:40:40;10.60;;;5.73;;
13672;SDS011;6909;52.202;9.876;2022-10-31T09:43:14;13.60;;;5.40;;
13672;SDS011;6909;52.202;9.876;2022-10-31T09:45:48;9.33;;;4.73;;
13672;SDS011;6909;52.202;9.876;2022-10-31T09:51:10;8.67;;;5.50;;
13672;SDS011;6909;52.202;9.876;2022-10-31T09:53:42;9.17;;;4.97;;
13672;SDS011;6909;52.202;9.876;2022-10-31T09:56:14;7.27;;;4.90;;
13672;SDS011;6909;52.202;9.876;2022-10-31T09:58:45;9.97;;;4.60;;
13672;SDS011;6909;52.202;9.876;2022-10-31T10:01:23;7.07;;;4.53;;
13672;SDS011;6909;52.202;9.876;2022-10-31T10:03:56;8.90;;;4.50;;
13672;SDS011;6909;52.202;9.876;2022-10-31T10:06:27;8.30;;;4.23;;
13672;SDS011;6909;52.202;9.876;2022-10-31T10:08:58;7.37;;;4.87;;
13672;SDS011;6909;52.202;9.876;2022-10-31T10:11:30;9.67;;;4.43;;
13672;SDS011;6909;52.202;9.876;2022-10-31T10:14:18;8.77;;;5.03;;
13672;SDS011;6909;52.202;9.876;2022-10-31T10:17:04;7.33;;;4.70;;
13672;SDS011;6909;52.202;9.876;2022-10-31T10:19:46;9.23;;;4.90;;
13672;SDS011;6909;52.202;9.876;2022-10-31T10:22:35;10.50;;;4.67;;
13672;SDS011;6909;52.202;9.876;2022-10-31T10:25:12;10.27;;;4.87;;
13672;SDS011;6909;52.202;9.876;2022-10-31T10:27:46;9.83;;;4.60;;
13672;SDS011;6909;52.202;9.876;2022-10-31T10:30:18;7.90;;;5.47;;
13672;SDS011;6909;52.202;9.876;2022-10-31T10:32:46;7.63;;;4.63;;
13672;SDS011;6909;52.202;9.876;2022-10-31T10:35:19;10.90;;;5.00;;
13672;SDS011;6909;52.202;9.876;2022-10-31T10:37:49;8.53;;;4.77;;
13672;SDS011;6909;52.202;9.876;2022-10-31T10:40:20;10.03;;;4.90;;
13672;SDS011;6909;52.202;9.876;2022-10-31T10:42:52;11.57;;;5.63;;
13672;SDS011;6909;52.202;9.876;2022-10-31T10:45:46;15.23;;;4.83;;
13672;SDS011;6909;52.202;9.876;2022-10-31T10:48:39;10.73;;;4.57;;
13672;SDS011;6909;52.202;9.876;2022-10-31T10:51:12;9.40;;;4.27;;
13672;SDS011;6909;52.202;9.876;2022-10-31T10:53:46;10.27;;;4.33;;
13672;SDS011;6909;52.202;9.876;2022-10-31T10:56:30;7.93;;;4.93;;
13672;SDS011;6909;52.202;9.876;2022-10-31T10:59:06;7.37;;;4.33;;
13672;SDS011;6909;52.202;9.876;2022-10-31T11:01:38;15.13;;;5.45;;
13672;SDS011;6909;52.202;9.876;2022-10-31T11:04:08;8.63;;;4.47;;
13672;SDS011;6909;52.202;9.876;2022-10-31T11:06:56;10.95;;;4.38;;
13672;SDS011;6909;52.202;9.876;2022-10-31T11:09:23;9.23;;;3.20;;
13672;SDS011;6909;52.202;9.876;2022-10-31T11:11:50;5.50;;;3.40;;
13672;SDS011;6909;52.202;9.876;2022-10-31T11:14:17;9.23;;;3.50;;
13672;SDS011;6909;52.202;9.876;2022-10-31T11:16:47;8.43;;;3.77;;
13672;SDS011;6909;52.202;9.876;2022-10-31T11:19:16;7.07;;;4.13;;
13672;SDS011;6909;52.202;9.876;2022-10-31T11:21:46;8.90;;;4.07;;
13672;SDS011;6909;52.202;9.876;2022-10-31T11:24:14;11.63;;;3.87;;
13672;SDS011;6909;52.202;9.876;2022-10-31T11:26:43;5.93;;;3.87;;
13672;SDS011;6909;52.202;9.876;2022-10-31T11:29:12;6.05;;;4.22;;
13672;SDS011;6909;52.202;9.876;2022-10-31T11:31:41;8.60;;;4.20;;
13672;SDS011;6909;52.202;9.876;2022-10-31T11:34:14;7.47;;;3.30;;
13672;SDS011;6909;52.202;9.876;2022-10-31T11:36:44;8.75;;;3.53;;
13672;SDS011;6909;52.202;9.876;2022-10-31T11:39:14;7.73;;;3.27;;
13672;SDS011;6909;52.202;9.876;2022-10-31T11:41:45;7.30;;;2.97;;
13672;SDS011;6909;52.202;9.876;2022-10-31T11:44:13;4.63;;;2.58;;
13672;SDS011;6909;52.202;9.876;2022-10-31T11:46:44;7.17;;;3.50;;
13672;SDS011;6909;52.202;9.876;2022-10-31T11:49:15;7.97;;;3.97;;
13672;SDS011;6909;52.202;9.876;2022-10-31T11:51:46;6.25;;;3.38;;
13672;SDS011;6909;52.202;9.876;2022-10-31T11:54:18;3.33;;;2.80;;
13672;SDS011;6909;52.202;9.876;2022-10-31T11:56:48;5.28;;;2.65;;
13672;SDS011;6909;52.202;9.876;2022-10-31T11:59:16;4.82;;;2.58;;
13672;SDS011;6909;52.202;9.876;2022-10-31T12:01:47;7.95;;;3.42;;
13672;SDS011;6909;52.202;9.876;2022-10-31T12:04:16;6.18;;;3.47;;
13672;SDS011;6909;52.202;9.876;2022-10-31T12:06:43;6.00;;;3.63;;
13672;SDS011;6909;52.202;9.876;2022-10-31T12:09:18;12.93;;;3.37;;
13672;SDS011;6909;52.202;9.876;2022-10-31T12:11:51;3.20;;;2.30;;
13672;SDS011;6909;52.202;9.876;2022-10-31T12:14:29;8.97;;;4.20;;
13672;SDS011;6909;52.202;9.876;2022-10-31T12:17:03;4.03;;;3.40;;
13672;SDS011;6909;52.202;9.876;2022-10-31T12:19:41;5.30;;;2.38;;
13672;SDS011;6909;52.202;9.876;2022-10-31T12:22:14;6.05;;;3.75;;
13672;SDS011;6909;52.202;9.876;2022-10-31T12:24:53;6.63;;;4.00;;
13672;SDS011;6909;52.202;9.876;2022-10-31T12:27:36;5.10;;;3.23;;
13672;SDS011;6909;52.202;9.876;2022-10-31T12:30:14;4.15;;;2.85;;
13672;SDS011;6909;52.202;9.876;2022-10-31T12:32:55;5.47;;;3.80;;
13672;SDS011;6909;52.202;9.876;2022-10-31T12:35:51;7.60;;;3.37;;
13672;SDS011;6909;52.202;9.876;2022-10-31T12:38:35;5.67;;;3.17;;
13672;SDS011;6909;52.202;9.876;2022-10-31T12:41:19;8.33;;;3.30;;
13672;SDS011;6909;52.202;9.876;2022-10-31T12:43:54;4.73;;;3.37;;
13672;SDS011;6909;52.202;9.876;2022-10-31T12:46:30;7.53;;;3.03;;
13672;SDS011;6909;52.202;9.876;2022-10-31T12:49:20;5.93;;;3.33;;
13672;SDS011;6909;52.202;9.876;2022-10-31T12:52:13;7.90;;;3.70;;
13672;SDS011;6909;52.202;9.876;2022-10-31T12:55:01;6.10;;;3.57;;
13672;SDS011;6909;52.202;9.876;2022-10-31T12:57:35;7.00;;;3.50;;
13672;SDS011;6909;52.202;9.876;2022-10-31T13:00:10;6.97;;;3.70;;
13672;SDS011;6909;52.202;9.876;2022-10-31T13:02:42;5.37;;;3.13;;
13672;SDS011;6909;52.202;9.876;2022-10-31T13:05:17;9.47;;;3.50;;
13672;SDS011;6909;52.202;9.876;2022-10-31T13:07:49;6.13;;;3.50;;
13672;SDS011;6909;52.202;9.876;2022-10-31T13:10:22;6.90;;;3.40;;
13672;SDS011;6909;52.202;9.876;2022-10-31T13:12:53;8.37;;;3.60;;
13672;SDS011;6909;52.202;9.876;2022-10-31T13:15:27;6.87;;;3.70;;
13672;SDS011;6909;52.202;9.876;2022-10-31T13:17:59;8.63;;;4.03;;
13672;SDS011;6909;52.202;9.876;2022-10-31T13:20:30;8.50;;;4.37;;
13672;SDS011;6909;52.202;9.876;2022-10-31T13:23:03;10.80;;;4.73;;
13672;SDS011;6909;52.202;9.876;2022-10-31T13:25:37;7.83;;;4.00;;
13672;SDS011;6909;52.202;9.876;2022-10-31T13:28:09;5.90;;;3.70;;
13672;SDS011;6909;52.202;9.876;2022-10-31T13:30:44;7.90;;;3.60;;
13672;SDS011;6909;52.202;9.876;2022-10-31T13:33:12;7.30;;;4.00;;
13672;SDS011;6909;52.202;9.876;2022-10-31T13:35:43;9.15;;;4.38;;
13672;SDS011;6909;52.202;9.876;2022-10-31T13:38:18;6.33;;;4.53;;
13672;SDS011;6909;52.202;9.876;2022-10-31T13:40:51;4.17;;;3.03;;
13672;SDS011;6909;52.202;9.876;2022-10-31T13:43:24;6.23;;;4.03;;
13672;SDS011;6909;52.202;9.876;2022-10-31T13:46:01;7.10;;;3.63;;
13672;SDS011;6909;52.202;9.876;2022-10-31T13:48:47;7.77;;;3.90;;
13672;SDS011;6909;52.202;9.876;2022-10-31T13:51:14;6.43;;;3.93;;
13672;SDS011;6909;52.202;9.876;2022-10-31T13:53:58;8.83;;;3.60;;
13672;SDS011;6909;52.202;9.876;2022-10-31T13:56:26;5.63;;;4.10;;
13672;SDS011;6909;52.202;9.876;2022-10-31T13:58:59;11.27;;;4.60;;
13672;SDS011;6909;52.202;9.876;2022-10-31T14:01:28;7.23;;;4.33;;
13672;SDS011;6909;52.202;9.876;2022-10-31T14:03:57;6.77;;;4.10;;
13672;SDS011;6909;52.202;9.876;2022-10-31T14:06:36;6.73;;;3.83;;
13672;SDS011;6909;52.202;9.876;2022-10-31T14:09:20;7.00;;;3.83;;
13672;SDS011;6909;52.202;9.876;2022-10-31T14:11:50;6.33;;;3.63;;
13672;SDS011;6909;52.202;9.876;2022-10-31T14:14:18;5.07;;;3.33;;
13672;SDS011;6909;52.202;9.876;2022-10-31T14:16:51;11.67;;;3.80;;
13672;SDS011;6909;52.202;9.876;2022-10-31T14:19:21;5.67;;;3.27;;
13672;SDS011;6909;52.202;9.876;2022-10-31T14:21:48;4.77;;;3.17;;
13672;SDS011;6909;52.202;9.876;2022-10-31T14:24:30;4.50;;;3.20;;
13672;SDS011;6909;52.202;9.876;2022-10-31T14:27:01;6.13;;;3.07;;
13672;SDS011;6909;52.202;9.876;2022-10-31T14:29:30;3.90;;;3.03;;
13672;SDS011;6909;52.202;9.876;2022-10-31T14:31:59;6.07;;;3.20;;
13672;SDS011;6909;52.202;9.876;2022-10-31T14:34:36;6.47;;;2.87;;
13672;SDS011;6909;52.202;9.876;2022-10-31T14:37:14;7.67;;;2.90;;
13672;SDS011;6909;52.202;9.876;2022-10-31T14:39:58;4.40;;;3.20;;
13672;SDS011;6909;52.202;9.876;2022-10-31T14:42:47;3.60;;;2.40;;
13672;SDS011;6909;52.202;9.876;2022-10-31T14:45:46;4.87;;;2.17;;
13672;SDS011;6909;52.202;9.876;2022-10-31T14:48:24;3.60;;;2.30;;
13672;SDS011;6909;52.202;9.876;2022-10-31T14:51:08;3.90;;;2.37;;
13672;SDS011;6909;52.202;9.876;2022-10-31T14:53:42;5.37;;;2.80;;
13672;SDS011;6909;52.202;9.876;2022-10-31T14:56:16;7.53;;;2.97;;
13672;SDS011;6909;52.202;9.876;2022-10-31T14:58:47;5.13;;;2.80;;
13672;SDS011;6909;52.202;9.876;2022-10-31T15:01:17;3.87;;;2.60;;
13672;SDS011;6909;52.202;9.876;2022-10-31T15:03:51;9.23;;;2.77;;
13672;SDS011;6909;52.202;9.876;2022-10-31T15:06:19;3.60;;;2.60;;
13672;SDS011;6909;52.202;9.876;2022-10-31T15:08:48;4.03;;;2.57;;
13672;SDS011;6909;52.202;9.876;2022-10-31T15:11:18;5.57;;;2.80;;
13672;SDS011;6909;52.202;9.876;2022-10-31T15:13:46;6.23;;;2.83;;
13672;SDS011;6909;52.202;9.876;2022-10-31T15:16:17;4.53;;;2.70;;
13672;SDS011;6909;52.202;9.876;2022-10-31T15:18:48;4.40;;;2.90;;
13672;SDS011;6909;52.202;9.876;2022-10-31T15:21:18;3.93;;;2.33;;
13672;SDS011;6909;52.202;9.876;2022-10-31T15:23:47;3.67;;;2.30;;
13672;SDS011;6909;52.202;9.876;2022-10-31T15:26:17;4.13;;;2.90;;